Time;durP1;ratioP1;P1;durP2;ratioP2;P2;SDS_P1;SDS_P2;PMS_P1;PMS_P2;Temp;Humidity;BMP_temperature;BMP_pressure;BME280_temperature;BME280_humidity;BME280_pressure;Samples;Min_cycle;Max_cycle;Signal;HPM_P1;HPM_P2
2022/03/25 00:01:00;;;;;;;61.03;31.27;;;12.00;34.70;;;;;;4965228;28;20484;-43
2022/03/25 00:03:28;;;;;;;57.78;30.50;;;11.90;34.70;;;;;;4964179;28;20054;-42
2022/03/25 00:05:55;;;;;;;56.85;30.52;;;11.90;34.80;;;;;;4962537;28;20046;-44
2022/03/25 00:08:23;;;;;;;62.30;32.15;;;11.90;34.80;;;;;;4964373;28;20053;-43
2022/03/25 00:10:52;;;;;;;65.60;32.90;;;11.90;34.90;;;;;;4964567;28;20066;-43
2022/03/25 00:13:19;;;;;;;65.60;34.38;;;11.80;34.90;;;;;;4964357;28;20046;-42
2022/03/25 00:15:47;;;;;;;71.25;37.78;;;11.80;35.00;;;;;;4960210;28;20051;-43
2022/03/25 00:18:14;;;;;;;69.03;36.65;;;11.80;35.00;;;;;;4964716;28;20499;-43
2022/03/25 00:20:42;;;;;;;75.38;39.55;;;11.80;35.10;;;;;;4965928;28;20066;-43
2022/03/25 00:23:10;;;;;;;75.20;37.97;;;11.70;35.20;;;;;;4964689;28;20054;-43
2022/03/25 00:25:37;;;;;;;78.53;37.20;;;11.70;35.30;;;;;;4961514;28;20062;-42
2022/03/25 00:28:07;;;;;;;69.20;35.78;;;11.70;35.50;;;;;;4964825;28;20538;-43
2022/03/25 00:30:34;;;;;;;67.60;37.03;;;11.60;35.50;;;;;;4963524;28;20043;-42
2022/03/25 00:33:02;;;;;;;60.72;32.63;;;11.60;35.60;;;;;;4964820;28;20050;-43
2022/03/25 00:35:29;;;;;;;66.75;35.40;;;11.60;35.60;;;;;;4964269;28;20507;-42
2022/03/25 00:37:58;;;;;;;63.67;33.38;;;11.50;35.60;;;;;;4964463;28;20054;-48
2022/03/25 00:40:25;;;;;;;59.97;32.70;;;11.50;35.60;;;;;;4965759;28;20055;-42
2022/03/25 00:42:53;;;;;;;59.95;31.38;;;11.50;35.60;;;;;;4963713;28;20055;-43
2022/03/25 00:45:22;;;;;;;57.33;31.30;;;11.50;35.70;;;;;;4961553;28;20419;-42
2022/03/25 00:47:50;;;;;;;59.65;31.33;;;11.50;35.80;;;;;;4964142;28;20051;-42
2022/03/25 00:50:20;;;;;;;57.03;31.13;;;11.40;35.90;;;;;;4965829;28;20062;-43
2022/03/25 00:52:48;;;;;;;59.78;32.28;;;11.40;36.00;;;;;;4962521;28;20051;-43
2022/03/25 00:55:15;;;;;;;54.80;30.70;;;11.40;36.10;;;;;;4960735;28;20054;-42
2022/03/25 00:57:43;;;;;;;54.10;30.40;;;11.40;36.20;;;;;;4964238;28;20090;-42
2022/03/25 01:00:11;;;;;;;57.72;32.38;;;11.30;36.30;;;;;;4964887;28;20047;-45
2022/03/25 01:02:40;;;;;;;58.47;31.25;;;11.30;36.40;;;;;;4965543;28;20069;-42
2022/03/25 01:05:08;;;;;;;64.57;33.72;;;11.30;36.40;;;;;;4961567;28;20422;-43
2022/03/25 01:07:36;;;;;;;60.90;33.72;;;11.30;36.40;;;;;;4962345;28;20050;-42
2022/03/25 01:10:05;;;;;;;56.88;30.98;;;11.30;36.40;;;;;;4963242;28;20065;-42
2022/03/25 01:12:32;;;;;;;54.63;30.80;;;11.20;36.50;;;;;;4964380;28;20058;-43
2022/03/25 01:15:00;;;;;;;70.93;36.03;;;11.20;36.50;;;;;;4960988;28;20059;-44
2022/03/25 01:17:28;;;;;;;62.08;33.72;;;11.20;36.60;;;;;;4962647;28;20061;-43
2022/03/25 01:19:56;;;;;;;67.05;35.70;;;11.20;36.60;;;;;;4961872;28;20511;-43
2022/03/25 01:22:24;;;;;;;59.38;31.05;;;11.10;36.80;;;;;;4962225;28;20055;-43
2022/03/25 01:24:52;;;;;;;60.78;32.33;;;11.10;36.80;;;;;;4961666;28;20062;-43
2022/03/25 01:27:19;;;;;;;66.43;32.58;;;11.10;36.80;;;;;;4963956;28;20058;-42
2022/03/25 01:29:46;;;;;;;58.67;31.77;;;11.10;36.80;;;;;;4961296;28;20051;-43
2022/03/25 01:32:16;;;;;;;60.13;32.60;;;11.00;36.80;;;;;;4964200;28;20081;-43
2022/03/25 01:34:44;;;;;;;62.25;32.30;;;11.00;36.80;;;;;;4961989;28;20055;-43
2022/03/25 01:37:13;;;;;;;60.65;32.58;;;11.00;36.90;;;;;;4963246;28;20400;-42
2022/03/25 01:39:40;;;;;;;55.97;29.40;;;11.00;37.00;;;;;;4965158;28;20422;-43
2022/03/25 01:42:08;;;;;;;59.00;31.38;;;10.90;37.20;;;;;;4963866;28;20055;-42
2022/03/25 01:44:35;;;;;;;65.88;35.53;;;10.90;37.30;;;;;;4962811;28;20488;-43
2022/03/25 01:47:08;;;;;;;76.65;37.33;;;10.90;37.40;;;;;;4963528;28;20059;-43
2022/03/25 01:49:36;;;;;;;72.97;37.47;;;10.80;37.50;;;;;;4963609;28;20518;-43
2022/03/25 01:52:04;;;;;;;75.57;36.88;;;10.80;37.60;;;;;;4962357;28;20063;-42
2022/03/25 01:54:34;;;;;;;67.53;35.42;;;10.80;37.50;;;;;;4960418;28;20410;-42
2022/03/25 01:57:03;;;;;;;72.13;33.50;;;10.80;37.50;;;;;;4962805;28;20861;-42
2022/03/25 01:59:31;;;;;;;64.25;31.77;;;10.70;37.40;;;;;;4963592;28;20396;-43
2022/03/25 02:02:01;;;;;;;52.80;29.33;;;10.60;37.40;;;;;;4961860;28;20055;-43
2022/03/25 02:04:28;;;;;;;59.83;31.13;;;10.60;37.40;;;;;;4960270;28;20695;-42
2022/03/25 02:06:56;;;;;;;55.28;30.40;;;10.60;37.40;;;;;;4962461;28;20059;-43
2022/03/25 02:09:24;;;;;;;59.05;30.67;;;10.60;37.50;;;;;;4961041;28;20423;-42
2022/03/25 02:11:52;;;;;;;58.83;30.25;;;10.60;37.60;;;;;;4962878;28;20102;-43
2022/03/25 02:14:20;;;;;;;65.78;33.83;;;10.60;37.70;;;;;;4958987;28;20483;-42
2022/03/25 02:16:49;;;;;;;65.10;31.75;;;10.50;37.80;;;;;;4963040;28;20059;-42
2022/03/25 02:19:19;;;;;;;60.47;32.60;;;10.50;37.90;;;;;;4963213;28;20434;-44
2022/03/25 02:21:49;;;;;;;66.30;35.47;;;10.50;38.00;;;;;;4962688;28;20065;-42
2022/03/25 02:24:17;;;;;;;63.45;32.80;;;10.50;38.00;;;;;;4963477;28;20048;-43
2022/03/25 02:26:45;;;;;;;63.63;32.17;;;10.50;38.00;;;;;;4963720;28;20066;-43
2022/03/25 02:29:14;;;;;;;70.57;33.95;;;10.40;38.50;;;;;;4960712;28;20502;-43
2022/03/25 02:31:42;;;;;;;67.07;34.38;;;10.40;38.10;;;;;;4963033;28;20062;-44
2022/03/25 02:34:11;;;;;;;61.40;33.60;;;10.40;38.20;;;;;;4961296;28;20058;-42
2022/03/25 02:36:39;;;;;;;62.15;32.38;;;10.40;38.30;;;;;;4960546;28;20059;-43
2022/03/25 02:39:09;;;;;;;60.40;31.35;;;10.40;38.30;;;;;;4956360;28;20058;-44
2022/03/25 02:41:37;;;;;;;66.95;32.72;;;10.40;38.40;;;;;;4964342;28;20418;-43
2022/03/25 02:44:05;;;;;;;65.03;33.60;;;10.30;38.40;;;;;;4959109;28;20050;-43
2022/03/25 02:46:33;;;;;;;61.42;30.95;;;10.30;38.40;;;;;;4960402;28;20415;-43
2022/03/25 02:49:01;;;;;;;57.95;29.25;;;10.30;38.40;;;;;;4961229;28;20614;-43
2022/03/25 02:51:28;;;;;;;53.55;28.98;;;10.30;38.50;;;;;;4960404;28;20059;-42
2022/03/25 02:53:59;;;;;;;59.90;31.40;;;10.30;38.50;;;;;;4960446;28;20058;-42
2022/03/25 02:56:28;;;;;;;57.47;31.63;;;10.20;38.60;;;;;;4961575;28;20498;-44
2022/03/25 02:58:56;;;;;;;53.67;29.08;;;10.30;38.70;;;;;;4960192;28;20062;-42
2022/03/25 03:01:23;;;;;;;59.88;31.52;;;10.20;38.70;;;;;;4956336;28;20349;-43
2022/03/25 03:03:51;;;;;;;57.60;29.98;;;10.20;38.80;;;;;;4957964;28;20061;-43
2022/03/25 03:06:18;;;;;;;59.00;31.33;;;10.20;38.90;;;;;;4962702;28;20507;-45
2022/03/25 03:08:46;;;;;;;52.88;31.48;;;10.20;39.00;;;;;;4962929;28;20491;-43
2022/03/25 03:11:13;;;;;;;60.28;32.45;;;10.10;38.90;;;;;;4967255;28;20058;-44
2022/03/25 03:13:42;;;;;;;55.95;30.67;;;10.10;38.90;;;;;;4961996;28;20043;-42
2022/03/25 03:16:10;;;;;;;55.25;29.27;;;10.10;39.00;;;;;;4965927;28;20062;-44
2022/03/25 03:18:38;;;;;;;54.42;29.92;;;10.10;39.00;;;;;;4966368;28;20062;-43
2022/03/25 03:21:05;;;;;;;55.80;28.98;;;10.10;39.00;;;;;;4966390;28;20495;-43
2022/03/25 03:23:33;;;;;;;56.20;29.63;;;10.10;39.00;;;;;;4965236;28;20070;-44
2022/03/25 03:26:00;;;;;;;60.70;30.40;;;10.00;39.00;;;;;;4966130;28;20070;-43
2022/03/25 03:28:28;;;;;;;57.03;31.10;;;10.00;39.10;;;;;;4966250;28;20054;-43
2022/03/25 03:30:57;;;;;;;62.78;31.10;;;10.00;39.20;;;;;;4965268;28;20070;-43
2022/03/25 03:33:24;;;;;;;66.10;32.97;;;9.90;39.20;;;;;;4964373;28;20751;-43
2022/03/25 03:35:52;;;;;;;70.68;34.20;;;9.90;39.30;;;;;;4963964;28;20054;-43
2022/03/25 03:38:19;;;;;;;58.47;29.17;;;9.90;39.40;;;;;;4965698;28;20066;-43
2022/03/25 03:40:47;;;;;;;49.47;28.05;;;9.90;39.50;;;;;;4966161;28;20063;-44
2022/03/25 03:43:15;;;;;;;51.50;28.40;;;9.80;39.50;;;;;;4964654;28;20063;-43
2022/03/25 03:45:42;;;;;;;51.40;27.90;;;9.80;39.60;;;;;;4962143;28;20418;-44
2022/03/25 03:48:12;;;;;;;51.30;28.00;;;9.80;39.70;;;;;;4965392;28;20050;-43
2022/03/25 03:50:40;;;;;;;54.05;29.08;;;9.80;39.80;;;;;;4966746;28;20526;-44
2022/03/25 03:53:08;;;;;;;54.83;28.65;;;9.80;39.90;;;;;;4963330;28;20058;-43
2022/03/25 03:55:35;;;;;;;55.20;29.45;;;9.80;39.90;;;;;;4964254;28;20059;-43
2022/03/25 03:58:03;;;;;;;57.63;30.98;;;9.70;39.90;;;;;;4965386;28;20062;-43
2022/03/25 04:00:32;;;;;;;56.25;29.60;;;9.70;40.10;;;;;;4964381;28;20058;-44
2022/03/25 04:03:00;;;;;;;58.10;29.17;;;9.70;40.10;;;;;;4966250;28;20069;-43
2022/03/25 04:05:28;;;;;;;62.50;32.38;;;9.70;40.10;;;;;;4962451;28;20055;-43
2022/03/25 04:07:56;;;;;;;62.60;32.92;;;9.70;40.30;;;;;;4964765;28;20051;-43
2022/03/25 04:10:23;;;;;;;76.82;37.88;;;9.60;40.30;;;;;;4965339;28;20061;-43
2022/03/25 04:12:51;;;;;;;74.57;38.15;;;9.60;40.40;;;;;;4962296;28;20051;-43
2022/03/25 04:15:20;;;;;;;76.82;39.95;;;9.60;40.40;;;;;;4962493;28;20062;-43
2022/03/25 04:17:48;;;;;;;72.88;36.95;;;9.60;40.50;;;;;;4966606;28;20058;-43
2022/03/25 04:20:18;;;;;;;70.30;37.80;;;9.60;40.60;;;;;;4965026;28;20074;-43
2022/03/25 04:22:48;;;;;;;75.70;37.58;;;9.60;40.70;;;;;;4965005;28;20071;-43
2022/03/25 04:25:15;;;;;;;69.53;34.35;;;9.50;40.70;;;;;;4960993;28;20058;-43
2022/03/25 04:27:50;;;;;;;64.47;33.97;;;9.50;40.80;;;;;;4965011;28;20055;-43
2022/03/25 04:30:19;;;;;;;71.78;36.15;;;9.40;40.80;;;;;;4965051;28;20059;-43
2022/03/25 04:32:46;;;;;;;68.68;34.25;;;9.40;40.80;;;;;;4963316;28;20069;-44
2022/03/25 04:35:14;;;;;;;78.55;36.38;;;9.40;40.80;;;;;;4963976;28;20074;-43
2022/03/25 04:37:42;;;;;;;61.42;33.65;;;9.40;41.00;;;;;;4963542;28;20414;-44
2022/03/25 04:40:13;;;;;;;66.78;33.88;;;9.30;40.90;;;;;;4963842;28;20050;-43
2022/03/25 04:42:40;;;;;;;65.75;32.53;;;9.30;41.00;;;;;;4964321;28;20054;-43
2022/03/25 04:45:08;;;;;;;67.03;32.15;;;9.30;41.00;;;;;;4961526;28;20047;-43
2022/03/25 04:47:36;;;;;;;66.00;34.33;;;9.20;41.00;;;;;;4965562;28;20066;-44
2022/03/25 04:50:04;;;;;;;59.58;32.17;;;9.20;41.00;;;;;;4966079;28;20061;-45
2022/03/25 04:52:31;;;;;;;58.10;31.30;;;9.20;41.10;;;;;;4962318;28;20503;-43
2022/03/25 04:54:59;;;;;;;62.10;32.55;;;9.20;41.20;;;;;;4964197;28;20055;-43
2022/03/25 04:57:28;;;;;;;64.63;33.15;;;9.20;41.20;;;;;;4964637;28;20860;-43
2022/03/25 04:59:56;;;;;;;68.13;34.80;;;9.10;41.30;;;;;;4965890;28;20059;-44
2022/03/25 05:02:23;;;;;;;68.00;33.55;;;9.10;41.40;;;;;;4963796;28;20055;-43
2022/03/25 05:04:55;;;;;;;70.15;33.72;;;9.10;41.50;;;;;;4963277;28;20625;-43
2022/03/25 05:07:23;;;;;;;72.63;37.40;;;9.00;41.50;;;;;;4959535;28;20050;-49
2022/03/25 05:09:50;;;;;;;64.28;33.63;;;9.00;41.50;;;;;;4958459;28;20062;-44
2022/03/25 05:12:18;;;;;;;67.82;34.20;;;9.00;41.50;;;;;;4964515;28;20419;-43
2022/03/25 05:14:47;;;;;;;64.13;33.70;;;9.00;41.60;;;;;;4961073;28;20565;-44
2022/03/25 05:17:14;;;;;;;63.97;34.13;;;9.00;41.70;;;;;;4951454;28;20066;-45
2022/03/25 05:19:42;;;;;;;66.80;34.50;;;8.90;41.60;;;;;;4962931;28;20061;-45
2022/03/25 05:22:10;;;;;;;56.85;31.48;;;8.90;41.70;;;;;;4963664;28;20431;-43
2022/03/25 05:24:37;;;;;;;56.53;30.15;;;8.90;41.70;;;;;;4960840;28;20054;-46
2022/03/25 05:27:05;;;;;;;63.13;33.53;;;8.90;41.90;;;;;;4957728;28;20061;-43
2022/03/25 05:29:32;;;;;;;66.53;34.53;;;8.90;42.00;;;;;;4963703;28;20109;-43
2022/03/25 05:32:02;;;;;;;75.47;37.00;;;8.90;42.00;;;;;;4962742;28;20077;-45
2022/03/25 05:34:29;;;;;;;73.30;37.40;;;8.90;42.10;;;;;;5810386;22;20024;-42
2022/03/25 05:36:57;;;;;;;61.92;32.55;;;8.80;42.10;;;;;;5043465;28;20059;-43
2022/03/25 05:39:25;;;;;;;63.25;34.95;;;8.80;42.10;;;;;;5061195;28;20044;-43
2022/03/25 05:41:52;;;;;;;67.72;33.08;;;8.80;42.10;;;;;;5059411;28;20060;-43
2022/03/25 05:44:20;;;;;;;57.17;32.22;;;8.80;42.10;;;;;;5060338;28;20052;-43
2022/03/25 05:46:47;;;;;;;62.63;33.72;;;8.80;42.20;;;;;;5061842;28;20430;-44
2022/03/25 05:49:16;;;;;;;65.82;34.78;;;8.80;42.30;;;;;;5061503;28;20419;-43
2022/03/25 05:51:44;;;;;;;74.15;37.53;;;8.80;42.50;;;;;;5059317;28;20059;-43
2022/03/25 05:54:11;;;;;;;62.83;34.42;;;8.70;42.40;;;;;;5059795;28;20503;-43
2022/03/25 05:56:39;;;;;;;73.10;37.60;;;8.80;42.50;;;;;;5060308;28;20061;-43
2022/03/25 05:59:07;;;;;;;68.75;35.22;;;8.70;42.60;;;;;;5061216;28;20063;-43
2022/03/25 06:01:34;;;;;;;58.63;32.97;;;8.80;42.60;;;;;;5061722;28;20419;-42
2022/03/25 06:04:02;;;;;;;65.05;33.25;;;8.80;42.60;;;;;;5057676;28;20052;-46
2022/03/25 06:06:31;;;;;;;61.30;33.05;;;8.80;42.70;;;;;;5061714;28;20052;-44
2022/03/25 06:08:58;;;;;;;57.60;32.33;;;8.80;42.80;;;;;;5059117;28;20514;-43
2022/03/25 06:11:26;;;;;;;59.70;33.25;;;8.80;42.80;;;;;;5060031;28;20048;-43
2022/03/25 06:13:53;;;;;;;66.57;34.53;;;8.80;42.90;;;;;;5060109;28;20052;-43
2022/03/25 06:16:21;;;;;;;58.88;33.25;;;8.80;43.00;;;;;;5061016;28;20059;-45
2022/03/25 06:18:48;;;;;;;61.38;34.65;;;8.80;43.10;;;;;;5061248;28;20059;-43
2022/03/25 06:21:17;;;;;;;62.45;34.05;;;8.80;43.10;;;;;;5060839;28;20052;-43
2022/03/25 06:23:47;;;;;;;63.40;35.35;;;8.90;43.30;;;;;;5058610;28;20075;-43
2022/03/25 06:26:14;;;;;;;60.63;33.70;;;8.90;43.60;;;;;;5061193;28;20052;-43
2022/03/25 06:28:42;;;;;;;65.60;35.33;;;8.90;43.50;;;;;;5059852;28;20071;-46
2022/03/25 06:31:09;;;;;;;70.82;35.92;;;8.90;43.50;;;;;;5061021;28;20060;-47
2022/03/25 06:33:37;;;;;;;72.70;37.42;;;9.00;43.50;;;;;;5060153;28;20048;-43
2022/03/25 06:36:07;;;;;;;70.63;36.70;;;9.00;43.50;;;;;;5059713;28;20403;-43
2022/03/25 06:38:35;;;;;;;67.07;36.03;;;9.00;43.40;;;;;;5057575;28;20061;-43
2022/03/25 06:41:04;;;;;;;62.35;33.00;;;9.00;43.30;;;;;;5058252;28;20052;-44
2022/03/25 06:43:31;;;;;;;71.43;36.05;;;9.10;43.30;;;;;;5056580;28;20515;-45
2022/03/25 06:45:59;;;;;;;65.85;33.92;;;9.10;43.30;;;;;;5052713;28;20044;-44
2022/03/25 06:48:27;;;;;;;65.70;35.15;;;9.10;43.40;;;;;;5059940;28;20052;-44
2022/03/25 06:50:56;;;;;;;68.65;36.22;;;9.10;43.40;;;;;;5062417;28;20052;-43
2022/03/25 06:53:24;;;;;;;75.88;39.58;;;9.20;43.80;;;;;;5057579;28;20055;-43
2022/03/25 06:55:52;;;;;;;77.72;40.15;;;9.20;43.90;;;;;;5060613;28;20063;-43
2022/03/25 06:58:21;;;;;;;76.47;39.22;;;9.20;43.90;;;;;;5062199;28;20060;-43
2022/03/25 07:00:49;;;;;;;81.28;41.65;;;9.30;44.10;;;;;;5060167;28;21556;-43
2022/03/25 07:03:18;;;;;;;74.80;40.05;;;9.30;44.40;;;;;;5059118;28;20044;-43
2022/03/25 07:05:46;;;;;;;73.30;38.55;;;9.30;44.70;;;;;;5060661;28;20407;-42
2022/03/25 07:08:14;;;;;;;73.57;40.15;;;9.30;44.70;;;;;;5059507;28;20048;-43
2022/03/25 07:10:42;;;;;;;73.30;39.10;;;9.30;44.50;;;;;;5062051;28;20064;-46
2022/03/25 07:13:11;;;;;;;84.72;41.15;;;9.30;44.50;;;;;;5059650;28;20063;-43
2022/03/25 07:15:40;;;;;;;91.93;41.90;;;9.30;44.10;;;;;;5059910;28;20068;-43
2022/03/25 07:18:07;;;;;;;80.75;40.65;;;9.30;44.00;;;;;;5060153;28;20052;-43
2022/03/25 07:20:35;;;;;;;83.32;40.75;;;9.30;44.20;;;;;;5059873;28;20407;-43
2022/03/25 07:23:02;;;;;;;80.32;40.85;;;9.30;44.60;;;;;;5060278;28;20060;-43
2022/03/25 07:25:31;;;;;;;84.90;41.90;;;9.30;44.70;;;;;;5060259;28;20053;-43
2022/03/25 07:27:58;;;;;;;89.40;43.28;;;9.30;44.90;;;;;;5061210;28;20057;-43
2022/03/25 07:30:26;;;;;;;79.43;40.25;;;9.30;45.10;;;;;;5059787;28;20064;-43
2022/03/25 07:32:55;;;;;;;80.55;41.65;;;9.40;45.00;;;;;;5058848;28;20048;-43
2022/03/25 07:35:22;;;;;;;76.10;40.17;;;9.40;45.10;;;;;;5059117;28;20423;-46
2022/03/25 07:37:50;;;;;;;82.57;41.95;;;9.40;45.30;;;;;;5058298;28;20053;-43
2022/03/25 07:40:18;;;;;;;88.50;41.83;;;9.40;45.70;;;;;;5059505;28;20060;-43
2022/03/25 07:42:46;;;;;;;85.07;43.53;;;9.50;45.50;;;;;;5061363;28;20048;-43
2022/03/25 07:45:15;;;;;;;78.38;41.35;;;9.60;45.60;;;;;;5056692;28;20060;-43
2022/03/25 07:47:43;;;;;;;81.55;39.85;;;9.60;45.70;;;;;;5060734;28;20048;-43
2022/03/25 07:50:14;;;;;;;81.35;40.83;;;9.70;45.90;;;;;;5060111;28;20052;-43
2022/03/25 07:52:42;;;;;;;82.13;41.10;;;9.70;45.80;;;;;;5058987;28;20409;-43
2022/03/25 07:55:10;;;;;;;80.90;42.67;;;9.80;45.50;;;;;;5057423;28;20049;-43
2022/03/25 07:57:38;;;;;;;81.28;41.35;;;9.80;45.40;;;;;;5065810;28;20056;-43
2022/03/25 08:00:11;;;;;;;77.10;40.53;;;9.90;45.50;;;;;;5064132;28;20407;-43
2022/03/25 08:02:39;;;;;;;91.90;44.38;;;10.00;45.50;;;;;;5065539;28;20056;-43
2022/03/25 08:05:09;;;;;;;89.03;41.70;;;10.00;45.20;;;;;;5062803;28;20055;-45
2022/03/25 08:07:43;;;;;;;82.65;41.10;;;10.10;45.20;;;;;;5062487;28;20399;-45
2022/03/25 08:10:10;;;;;;;;;;;10.10;45.10;;;;;;5066173;28;20052;-44
2022/03/25 08:12:37;;;;;;;82.43;41.25;;;10.20;45.00;;;;;;5064480;28;19920;-43
2022/03/25 08:15:07;;;;;;;77.72;42.85;;;10.20;44.90;;;;;;5059041;28;20045;-43
2022/03/25 08:17:46;;;;;;;87.97;44.65;;;10.30;45.20;;;;;;5063863;28;20052;-43
2022/03/25 08:20:14;;;;;;;85.20;42.53;;;10.30;45.50;;;;;;5062644;28;20052;-43
2022/03/25 08:22:42;;;;;;;89.68;45.20;;;10.40;45.50;;;;;;5064099;28;20056;-43
2022/03/25 08:28:00;;;;;;;87.68;44.53;;;10.40;45.50;;;;;;5070957;28;20407;-44
2022/03/25 08:30:28;;;;;;;93.40;43.92;;;10.50;45.80;;;;;;5062769;28;20075;-43
2022/03/25 08:32:57;;;;;;;88.32;45.05;;;10.60;45.90;;;;;;5064167;28;20415;-46
2022/03/25 08:35:25;;;;;;;84.32;44.63;;;10.60;45.70;;;;;;5059384;28;20458;-43
2022/03/25 08:37:55;;;;;;;83.93;44.22;;;10.70;45.90;;;;;;5060686;28;20063;-46
2022/03/25 08:40:22;;;;;;;86.38;45.88;;;10.80;46.00;;;;;;5061576;28;20059;-43
2022/03/25 08:42:50;;;;;;;85.50;44.13;;;10.80;46.00;;;;;;5062223;28;20056;-43
2022/03/25 08:45:17;;;;;;;84.40;43.22;;;10.90;46.00;;;;;;5060804;28;20061;-43
2022/03/25 08:47:46;;;;;;;77.95;39.88;;;11.00;45.80;;;;;;5062339;28;20059;-44
2022/03/25 08:50:17;;;;;;;86.05;41.28;;;11.00;45.70;;;;;;5063194;28;20060;-43
2022/03/25 08:52:46;;;;;;;75.07;38.80;;;11.20;45.70;;;;;;5061669;28;20641;-45
2022/03/25 08:55:16;;;;;;;80.80;41.42;;;11.20;45.30;;;;;;5060928;28;20053;-43
2022/03/25 08:57:44;;;;;;;79.35;40.53;;;11.30;45.10;;;;;;5062989;28;20492;-43
2022/03/25 09:00:14;;;;;;;76.75;40.72;;;11.40;44.90;;;;;;5059989;28;20049;-42
2022/03/25 09:02:43;;;;;;;77.22;38.65;;;11.40;44.60;;;;;;5059323;28;20135;-43
2022/03/25 09:05:11;;;;;;;68.68;37.05;;;11.50;44.50;;;;;;5059872;28;20059;-43
2022/03/25 09:07:40;;;;;;;71.10;38.58;;;11.60;44.40;;;;;;5059446;28;20053;-44
2022/03/25 09:10:10;;;;;;;74.90;37.53;;;11.60;44.40;;;;;;5061800;28;20063;-46
2022/03/25 09:12:39;;;;;;;74.65;35.53;;;11.70;44.40;;;;;;5061692;28;20052;-43
2022/03/25 09:15:08;;;;;;;62.60;35.42;;;11.90;44.20;;;;;;5060473;28;20063;-43
2022/03/25 09:17:36;;;;;;;67.68;36.35;;;11.90;44.20;;;;;;5047356;28;20041;-43
2022/03/25 09:20:04;;;;;;;71.00;36.58;;;12.00;44.30;;;;;;5036171;28;20490;-43
2022/03/25 09:22:33;;;;;;;63.08;33.85;;;12.10;44.20;;;;;;5039505;28;20064;-43
2022/03/25 09:25:01;;;;;;;67.55;34.97;;;12.20;44.20;;;;;;5042012;28;20408;-43
2022/03/25 09:27:28;;;;;;;61.75;32.17;;;12.30;43.60;;;;;;5041223;28;20048;-43
2022/03/25 09:29:57;;;;;;;61.90;33.25;;;12.40;43.60;;;;;;5043156;28;20511;-43
2022/03/25 09:32:25;;;;;;;66.78;34.97;;;12.50;43.60;;;;;;5040028;28;20764;-43
2022/03/25 09:37:35;;;;;;;61.38;31.00;;;12.60;43.30;;;;;;5040714;28;20036;-43
2022/03/25 09:40:08;;;;;;;64.18;33.55;;;12.70;43.10;;;;;;5042733;28;20059;-44
2022/03/25 09:42:36;;;;;;;63.03;33.58;;;12.80;43.00;;;;;;5042268;28;20056;-43
2022/03/25 09:45:08;;;;;;;58.30;30.92;;;12.90;43.30;;;;;;5040070;28;20428;-43
2022/03/25 09:47:36;;;;;;;60.92;31.73;;;13.00;42.90;;;;;;5040586;28;20056;-43
2022/03/25 09:50:05;;;;;;;64.65;31.05;;;13.10;42.50;;;;;;5040162;28;20059;-43
2022/03/25 09:52:34;;;;;;;64.38;32.92;;;13.20;42.20;;;;;;5041840;28;20067;-43
2022/03/25 09:55:02;;;;;;;53.55;30.17;;;13.30;41.90;;;;;;5038926;28;20511;-46
2022/03/25 09:57:31;;;;;;;59.17;29.33;;;13.30;41.80;;;;;;5042934;28;20412;-43
2022/03/25 09:59:59;;;;;;;58.35;30.30;;;13.40;42.00;;;;;;5041326;28;20049;-43
2022/03/25 10:02:28;;;;;;;59.40;30.27;;;13.50;41.90;;;;;;5041627;28;20049;-43
2022/03/25 10:04:56;;;;;;;57.83;29.10;;;13.60;41.80;;;;;;5040552;28;20056;-43
2022/03/25 10:07:28;;;;;;;53.13;28.38;;;13.70;41.60;;;;;;5041374;28;20408;-43
2022/03/25 10:10:11;;;;;;;57.88;28.92;;;13.80;41.30;;;;;;5041751;28;20083;-45
2022/03/25 10:12:40;;;;;;;55.58;29.73;;;13.90;41.30;;;;;;5040708;28;20420;-45
2022/03/25 10:15:14;;;;;;;61.35;30.73;;;14.00;41.40;;;;;;5039896;28;20052;-44
2022/03/25 10:17:50;;;;;;;52.77;28.47;;;14.10;41.20;;;;;;5042088;28;20052;-44
2022/03/25 10:20:19;;;;;;;56.08;27.80;;;14.20;40.80;;;;;;5038676;28;20049;-43
2022/03/25 10:23:08;;;;;;;50.47;25.60;;;14.30;40.90;;;;;;5041749;28;20061;-43
2022/03/25 10:25:42;;;;;;;52.45;26.90;;;14.40;40.80;;;;;;5037193;28;20049;-45
2022/03/25 10:28:20;;;;;;;54.72;27.65;;;14.50;40.40;;;;;;5038542;28;20049;-43
2022/03/25 10:30:50;;;;;;;55.05;25.95;;;14.60;40.10;;;;;;5042063;28;20064;-43
2022/03/25 10:33:27;;;;;;;52.28;26.20;;;14.60;40.10;;;;;;5042455;28;20061;-43
2022/03/25 10:35:57;;;;;;;58.30;25.83;;;14.70;39.80;;;;;;5037697;28;20060;-43
2022/03/25 10:38:26;;;;;;;52.70;26.00;;;14.80;39.50;;;;;;5039377;28;20049;-44
2022/03/25 10:40:56;;;;;;;49.38;23.92;;;14.90;39.50;;;;;;5039183;28;20496;-43
2022/03/25 10:43:24;;;;;;;52.47;25.95;;;15.00;39.70;;;;;;5040084;28;20052;-43
2022/03/25 10:45:52;;;;;;;45.15;23.52;;;15.10;39.40;;;;;;5035888;28;20057;-47
2022/03/25 10:48:24;;;;;;;52.20;27.45;;;15.20;39.30;;;;;;5042039;28;20049;-43
2022/03/25 10:51:12;;;;;;;45.00;24.63;;;15.30;39.10;;;;;;5039743;28;20060;-43
2022/03/25 10:53:43;;;;;;;50.20;25.88;;;15.30;38.70;;;;;;5035886;28;20057;-44
2022/03/25 10:56:11;;;;;;;53.63;26.63;;;15.40;39.20;;;;;;5040627;28;20071;-44
2022/03/25 10:58:39;;;;;;;41.85;23.70;;;15.50;38.50;;;;;;5040731;28;20052;-43
2022/03/25 11:01:07;;;;;;;53.30;26.42;;;15.60;38.50;;;;;;5038521;28;20061;-43
2022/03/25 11:03:36;;;;;;;49.45;25.52;;;15.70;38.20;;;;;;5041657;28;20056;-43
2022/03/25 11:06:06;;;;;;;43.65;24.60;;;15.80;37.60;;;;;;5037873;28;20067;-43
2022/03/25 11:08:35;;;;;;;48.47;25.52;;;15.80;37.30;;;;;;5038462;28;20059;-43
2022/03/25 11:11:03;;;;;;;51.90;25.20;;;15.90;37.40;;;;;;5040102;28;20492;-43
2022/03/25 11:13:31;;;;;;;48.22;25.42;;;15.90;37.30;;;;;;5042023;28;20049;-43
2022/03/25 11:16:01;;;;;;;48.85;25.33;;;16.10;37.50;;;;;;5038865;28;20057;-43
2022/03/25 11:18:29;;;;;;;46.88;25.25;;;16.10;36.70;;;;;;5038971;28;20052;-43
2022/03/25 11:21:00;;;;;;;45.05;23.67;;;16.20;36.60;;;;;;5039928;28;20053;-47
2022/03/25 11:23:32;;;;;;;36.95;21.05;;;16.30;36.50;;;;;;5037613;28;20060;-45
2022/03/25 11:26:03;;;;;;;40.70;19.55;;;16.40;35.60;;;;;;5040413;28;20056;-43
2022/03/25 11:28:33;;;;;;;45.58;22.05;;;16.40;34.50;;;;;;5041641;28;20049;-43
2022/03/25 11:31:02;;;;;;;44.00;20.85;;;16.50;33.30;;;;;;5038512;28;20046;-43
2022/03/25 11:33:30;;;;;;;41.00;20.35;;;16.60;33.90;;;;;;5045189;28;20053;-43
2022/03/25 11:36:24;;;;;;;41.92;22.20;;;16.70;34.20;;;;;;5040583;28;20057;-43
2022/03/25 11:39:22;;;;;;;46.00;22.63;;;16.80;34.10;;;;;;5025046;28;20420;-43
2022/03/25 11:41:50;;;;;;;45.35;22.58;;;16.90;33.50;;;;;;5045134;28;20061;-43
2022/03/25 11:44:24;;;;;;;40.95;21.35;;;17.00;33.60;;;;;;5042869;28;20427;-43
2022/03/25 11:47:19;;;;;;;45.70;21.48;;;17.00;33.80;;;;;;5044815;28;20663;-43
2022/03/25 11:49:46;;;;;;;51.17;22.05;;;17.10;33.90;;;;;;5045246;28;20053;-43
2022/03/25 11:52:34;;;;;;;42.72;22.67;;;17.10;34.10;;;;;;5042993;28;20057;-43
2022/03/25 11:55:03;;;;;;;37.40;20.25;;;17.20;33.80;;;;;;5044270;28;20618;-49
2022/03/25 11:57:32;;;;;;;36.20;19.08;;;17.30;34.10;;;;;;5044280;28;20052;-43
2022/03/25 12:00:02;;;;;;;36.00;19.10;;;17.30;33.90;;;;;;5041545;28;20060;-43
2022/03/25 12:02:36;;;;;;;43.28;19.40;;;17.30;33.70;;;;;;5044074;28;20420;-43
2022/03/25 12:05:07;;;;;;;54.42;21.27;;;17.40;33.80;;;;;;5041287;28;20385;-44
2022/03/25 12:07:35;;;;;;;38.33;20.27;;;17.40;33.00;;;;;;5041268;28;20053;-43
2022/03/25 12:10:03;;;;;;;38.45;18.55;;;17.40;32.70;;;;;;5043576;28;20048;-48
2022/03/25 12:12:55;;;;;;;35.85;19.30;;;17.50;32.60;;;;;;5042717;28;20049;-43
2022/03/25 12:15:41;;;;;;;44.05;19.80;;;17.60;32.40;;;;;;5039187;28;20057;-43
2022/03/25 12:18:39;;;;;;;40.63;20.52;;;17.60;32.50;;;;;;5039986;28;20496;-43
2022/03/25 12:21:12;;;;;;;40.97;19.80;;;17.70;32.10;;;;;;5036534;28;20049;-45
2022/03/25 12:23:41;;;;;;;36.80;18.57;;;17.70;32.20;;;;;;5040367;28;20053;-48
2022/03/25 12:26:08;;;;;;;35.25;18.33;;;17.80;31.90;;;;;;5041204;28;20056;-43
2022/03/25 12:28:36;;;;;;;35.53;18.85;;;17.80;31.10;;;;;;5042375;28;20049;-46
2022/03/25 12:31:05;;;;;;;41.05;19.40;;;17.80;30.90;;;;;;5040687;28;20057;-43
2022/03/25 12:33:34;;;;;;;31.08;17.00;;;17.90;31.00;;;;;;5040579;28;20652;-44
2022/03/25 12:36:08;;;;;;;37.20;18.13;;;17.90;31.20;;;;;;5042058;28;20412;-43
2022/03/25 12:38:45;;;;;;;36.28;18.58;;;17.90;30.50;;;;;;5036392;28;20585;-43
2022/03/25 12:41:24;;;;;;;40.33;16.83;;;18.00;30.50;;;;;;5035624;28;20059;-45
2022/03/25 12:43:57;;;;;;;30.20;15.93;;;18.10;31.00;;;;;;5042016;28;20048;-43
2022/03/25 12:46:25;;;;;;;30.73;17.95;;;18.10;30.70;;;;;;5042451;28;20049;-43